Terminal Aerodrome Forecast
Issued by NWS

Home | Current Version | Previous Version | Text Only | Print | Product List | Glossary On
Versions: 1 2 3 4 5 6 7 8 9 10 11 12 13 14 15 16 17 18 19 20 21 22 23 24 25 26 27 28 29 30 31 32 33 34 35 36
000
FTUS46 KEKA 212346
TAFUKI
TAF
KUKI 212346Z 2200/2224 32003KT P6SM -SHRA SCT025 BKN045
     FM220200 32003KT P6SM VCSH BKN040
     FM220400 32003KT P6SM BKN035
     FM220900 00000KT 6SM BR SCT002 SCT030
     FM221600 34004KT P6SM VCSH SCT035 SCT120
     FM221900 30010KT P6SM SCT030 SCT100=

USA.gov is the U.S. government's official web portal to all federal, state and local government web resources and services.